Time;durP1;ratioP1;P1;durP2;ratioP2;P2;SDS_P1;SDS_P2;PMS_P1;PMS_P2;Temp;Humidity;BMP_temperature;BMP_pressure;BME280_temperature;BME280_humidity;BME280_pressure;Samples;Min_cycle;Max_cycle;Signal;HPM_P1;HPM_P2
2022/12/10 00:00:31;;;;;;;54.38;29.48;;;;;;;-2.98;100.00;100825.84;5052568;28;20060;-52
2022/12/10 00:02:56;;;;;;;50.60;28.13;;;;;;;-3.00;100.00;100828.47;5051427;28;20367;-56
2022/12/10 00:05:21;;;;;;;52.20;28.15;;;;;;;-3.00;100.00;100819.81;5045813;28;20031;-56
2022/12/10 00:07:46;;;;;;;56.83;27.77;;;;;;;-3.05;100.00;100821.66;5052221;28;20033;-54
2022/12/10 00:10:12;;;;;;;51.53;27.63;;;;;;;-3.06;100.00;100828.59;5052282;28;20387;-56
2022/12/10 00:12:37;;;;;;;53.30;28.77;;;;;;;-3.07;100.00;100831.22;5051697;28;20045;-54
2022/12/10 00:15:03;;;;;;;55.20;29.55;;;;;;;-3.07;100.00;100829.47;5051986;28;20418;-55
2022/12/10 00:17:28;;;;;;;55.47;28.63;;;;;;;-3.09;100.00;100836.44;5051358;28;20039;-53
2022/12/10 00:19:53;;;;;;;57.40;30.48;;;;;;;-3.11;100.00;100835.63;5051766;28;20025;-53
2022/12/10 00:22:18;;;;;;;55.92;29.55;;;;;;;-3.11;100.00;100835.63;5051748;28;20079;-53
2022/12/10 00:24:44;;;;;;;54.47;29.35;;;;;;;-3.09;100.00;100838.19;5051355;28;20060;-56
2022/12/10 00:27:09;;;;;;;53.90;28.38;;;;;;;-3.08;100.00;100847.69;5052062;28;20032;-56
2022/12/10 00:29:34;;;;;;;55.28;29.38;;;;;;;-3.08;100.00;100845.97;5050906;28;20037;-55
2022/12/10 00:31:59;;;;;;;53.38;29.58;;;;;;;-3.09;100.00;100844.25;5043183;28;20442;-53
2022/12/10 00:34:25;;;;;;;60.03;30.15;;;;;;;-3.09;100.00;100843.41;5045620;28;20090;-54
2022/12/10 00:36:50;;;;;;;58.60;28.98;;;;;;;-3.10;100.00;100850.31;5045093;28;20048;-56
2022/12/10 00:39:19;;;;;;;55.85;29.88;;;;;;;-3.12;100.00;100846.06;5051654;28;20021;-54
2022/12/10 00:41:44;;;;;;;53.37;28.77;;;;;;;-3.16;100.00;100835.72;5052061;28;20021;-55
2022/12/10 00:44:10;;;;;;;51.63;28.10;;;;;;;-3.17;100.00;100840.94;5049057;28;20307;-56
2022/12/10 00:46:36;;;;;;;55.17;30.08;;;;;;;-3.18;100.00;100845.28;5051366;28;20096;-56
2022/12/10 00:49:01;;;;;;;57.92;30.20;;;;;;;-3.20;100.00;100839.28;5052057;28;20031;-53
2022/12/10 00:51:27;;;;;;;54.80;30.55;;;;;;;-3.19;100.00;100837.53;5050746;28;20044;-55
2022/12/10 00:53:54;;;;;;;59.08;30.30;;;;;;;-3.21;100.00;100826.31;5045087;28;20033;-56
2022/12/10 00:56:23;;;;;;;56.83;29.88;;;;;;;-3.23;100.00;100828.94;5051463;28;20482;-55
2022/12/10 00:58:49;;;;;;;61.58;30.23;;;;;;;-3.22;100.00;100824.59;5051193;28;20025;-53
2022/12/10 01:01:34;;;;;;;52.20;29.13;;;;;;;-3.22;100.00;100825.44;5048402;28;20064;-55
2022/12/10 01:04:04;;;;;;;57.92;29.92;;;;;;;-3.21;100.00;100821.13;5043704;28;20505;-54
2022/12/10 01:06:33;;;;;;;57.03;30.58;;;;;;;-3.27;100.00;100823.84;5050692;28;20029;-54
2022/12/10 01:09:02;;;;;;;58.45;30.73;;;;;;;-3.25;100.00;100822.06;5051467;28;20021;-56
2022/12/10 01:11:32;;;;;;;;;;;;;;;-3.22;100.00;100820.25;5051557;28;20029;-55
2022/12/10 01:13:58;;;;;;;52.80;29.20;;;;;;;-3.29;100.00;100825.63;5051128;28;19970;-53
2022/12/10 01:16:24;;;;;;;55.85;29.95;;;;;;;-3.32;100.00;100826.50;5050757;28;20915;-52
2022/12/10 01:18:49;;;;;;;60.70;31.05;;;;;;;-3.35;100.00;100829.16;5051232;28;20056;-56
2022/12/10 01:21:18;;;;;;;58.92;30.40;;;;;;;-3.36;100.00;100833.50;5046242;28;20032;-55
2022/12/10 01:23:45;;;;;;;;;;;;;;;-3.28;100.00;100837.69;5051963;28;20079;-56
2022/12/10 01:26:13;;;;;;;57.72;28.58;;;;;;;-3.36;100.00;100827.47;5039570;28;20293;-56
2022/12/10 01:28:40;;;;;;;55.05;29.27;;;;;;;-3.40;100.00;100836.19;5047105;28;20279;-54
2022/12/10 01:31:08;;;;;;;57.95;30.15;;;;;;;-3.42;100.00;100841.41;5038966;28;20038;-52
2022/12/10 01:33:35;;;;;;;58.80;29.27;;;;;;;-3.41;100.00;100850.09;5050222;28;20021;-53
2022/12/10 01:36:06;;;;;;;57.85;30.95;;;;;;;-3.43;100.00;100851.81;5051104;28;20025;-53
2022/12/10 01:38:31;;;;;;;55.58;30.45;;;;;;;-3.43;100.00;100857.03;5049916;28;20033;-53
2022/12/10 01:40:58;;;;;;;59.30;30.85;;;;;;;-3.45;100.00;100859.63;5051630;28;20029;-52
2022/12/10 01:43:23;;;;;;;57.08;30.55;;;;;;;-3.42;100.00;100858.75;5049731;28;20032;-53
2022/12/10 01:45:49;;;;;;;60.10;29.13;;;;;;;-3.40;100.00;100864.75;5051383;28;20033;-52
2022/12/10 01:48:14;;;;;;;65.15;32.33;;;;;;;-3.41;100.00;100863.06;5050181;28;20028;-52
2022/12/10 01:50:40;;;;;;;66.68;32.95;;;;;;;-3.44;100.00;100858.78;5054371;28;20025;-53
2022/12/10 01:53:05;;;;;;;63.08;31.88;;;;;;;-3.46;100.00;100868.34;5054077;28;20033;-53
2022/12/10 01:55:45;;;;;;;69.43;33.17;;;;;;;-3.44;100.00;100871.75;5054852;28;20178;-52
2022/12/10 01:58:12;;;;;;;105.97;32.72;;;;;;;-3.47;100.00;100857.97;5054550;28;20059;-54
2022/12/10 02:00:45;;;;;;;65.18;32.40;;;;;;;-3.48;100.00;100853.66;5053492;28;20044;-55
2022/12/10 02:03:23;;;;;;;71.55;34.97;;;;;;;-3.50;100.00;100856.28;5054833;28;20064;-52
2022/12/10 02:06:20;;;;;;;66.43;32.53;;;;;;;-3.53;100.00;100854.59;5054209;28;20021;-54
2022/12/10 02:09:57;;;;;;;74.55;34.70;;;;;;;-3.53;100.00;100856.31;5052595;28;20660;-53
2022/12/10 02:12:44;;;;;;;66.60;31.75;;;;;;;-3.53;100.00;100864.13;5000109;28;20048;-55
2022/12/10 02:15:14;;;;;;;76.10;33.42;;;;;;;-3.52;100.00;100852.84;5009503;28;20158;-53
2022/12/10 02:17:51;;;;;;;69.40;33.95;;;;;;;-3.50;100.00;100855.44;5039163;28;20037;-53
2022/12/10 02:20:25;;;;;;;67.65;33.45;;;;;;;-3.48;100.00;100861.44;5053501;28;20039;-54
2022/12/10 02:22:59;;;;;;;69.32;33.47;;;;;;;-3.48;100.00;100853.66;5053943;28;20040;-54
2022/12/10 02:25:50;;;;;;;75.68;34.28;;;;;;;-3.42;100.00;100853.56;5054219;28;20396;-52
2022/12/10 02:28:35;;;;;;;79.07;34.63;;;;;;;-3.37;100.00;100862.09;5034301;28;20041;-52
2022/12/10 02:31:02;;;;;;;71.32;33.67;;;;;;;-3.34;100.00;100862.06;5053073;28;20029;-53
2022/12/10 02:33:29;;;;;;;67.55;33.38;;;;;;;-3.30;100.00;100850.72;5052231;28;20062;-55
2022/12/10 02:35:57;;;;;;;75.63;34.85;;;;;;;-3.27;100.00;100858.44;5053958;28;20033;-52
2022/12/10 02:38:41;;;;;;;71.00;35.13;;;;;;;-3.24;100.00;100858.38;5053269;28;20025;-53
2022/12/10 02:41:21;;;;;;;70.57;33.90;;;;;;;-3.19;100.00;100859.16;5050978;28;20033;-56
2022/12/10 02:43:51;;;;;;;73.53;34.72;;;;;;;-3.17;100.00;100854.78;5053116;28;20382;-53
2022/12/10 02:46:17;;;;;;;74.72;34.30;;;;;;;-3.12;100.00;100851.25;5053814;28;20033;-56
2022/12/10 02:48:45;;;;;;;75.80;35.10;;;;;;;-3.11;100.00;100851.22;5053096;28;20048;-56
2022/12/10 02:51:10;;;;;;;74.15;35.63;;;;;;;-3.07;100.00;100844.22;5053576;28;20104;-52
2022/12/10 02:53:44;;;;;;;72.53;34.03;;;;;;;-3.04;100.00;100849.34;5053752;28;20179;-55
2022/12/10 02:56:40;;;;;;;74.50;34.70;;;;;;;-2.98;100.00;100851.84;5052200;28;20029;-54
2022/12/10 02:59:27;;;;;;;67.80;33.38;;;;;;;-2.97;100.00;100851.78;5053048;28;20020;-53
2022/12/10 03:02:11;;;;;;;71.20;33.80;;;;;;;-2.95;100.00;100854.34;5053139;28;20044;-54
2022/12/10 03:04:47;;;;;;;72.57;34.17;;;;;;;-2.92;100.00;100863.84;5053568;28;20068;-53
2022/12/10 03:07:18;;;;;;;72.22;34.35;;;;;;;-2.89;100.00;100866.38;5053176;28;20040;-54
2022/12/10 03:09:51;;;;;;;73.32;33.63;;;;;;;-2.87;100.00;100868.03;5052988;28;20035;-52
2022/12/10 03:12:28;;;;;;;76.53;33.75;;;;;;;-2.85;100.00;100860.22;5053020;28;20044;-54
2022/12/10 03:14:59;;;;;;;76.82;34.97;;;;;;;-2.85;100.00;100863.69;5052251;28;20029;-54
2022/12/10 03:17:27;;;;;;;73.78;35.40;;;;;;;-2.84;100.00;100864.53;5053442;28;20540;-55
2022/12/10 03:19:54;;;;;;;75.38;34.83;;;;;;;-2.79;100.00;100871.34;5051911;28;20071;-54
2022/12/10 03:22:20;;;;;;;77.07;35.13;;;;;;;-2.76;100.00;100862.63;5053379;28;20033;-52
2022/12/10 03:24:47;;;;;;;75.75;34.88;;;;;;;-2.73;100.00;100856.50;5052189;28;20040;-53
2022/12/10 03:27:15;;;;;;;80.97;35.70;;;;;;;-2.73;100.00;100848.69;5052544;28;20032;-53
2022/12/10 03:29:48;;;;;;;78.90;34.88;;;;;;;-2.72;100.00;100850.44;5052012;28;20078;-52
2022/12/10 03:32:15;;;;;;;77.80;35.20;;;;;;;-2.72;100.00;100853.88;5053195;28;20056;-55
2022/12/10 03:34:42;;;;;;;74.80;34.63;;;;;;;-2.69;100.00;100853.81;5050371;28;20040;-54
2022/12/10 03:37:07;;;;;;;84.65;36.22;;;;;;;-2.68;100.00;100858.13;5052882;28;20150;-53
2022/12/10 03:39:33;;;;;;;88.95;34.25;;;;;;;-2.66;100.00;100858.94;5052066;28;20115;-53
2022/12/10 03:41:59;;;;;;;76.10;35.67;;;;;;;-2.67;100.00;100874.56;5051782;28;20036;-53
2022/12/10 03:44:29;;;;;;;82.47;36.42;;;;;;;-2.68;100.00;100868.53;5052506;28;20032;-54
2022/12/10 03:46:55;;;;;;;90.65;37.40;;;;;;;-2.69;100.00;100865.97;5052227;28;20507;-56
2022/12/10 03:49:20;;;;;;;76.65;34.55;;;;;;;-2.69;100.00;100872.00;5052140;28;20057;-55
2022/12/10 03:51:45;;;;;;;86.68;35.20;;;;;;;-2.69;100.00;100881.56;5051734;28;20116;-52
2022/12/10 03:54:11;;;;;;;80.97;34.92;;;;;;;-2.71;100.00;100871.19;5049064;28;20391;-53
2022/12/10 03:56:36;;;;;;;78.90;36.75;;;;;;;-2.71;100.00;100872.94;5052362;28;20021;-54
2022/12/10 03:59:02;;;;;;;79.32;35.38;;;;;;;-2.71;100.00;100878.16;5051366;28;20063;-53
2022/12/10 04:01:27;;;;;;;95.15;36.60;;;;;;;-2.72;100.00;100879.88;5052607;28;20116;-52
2022/12/10 04:03:52;;;;;;;83.95;34.83;;;;;;;-2.71;100.00;100876.38;5051436;28;20545;-52
2022/12/10 04:06:18;;;;;;;77.82;33.90;;;;;;;-2.72;100.00;100876.41;5052415;28;20033;-52
2022/12/10 04:08:44;;;;;;;80.43;36.13;;;;;;;-2.72;100.00;100881.63;5051050;28;20025;-52
2022/12/10 04:11:12;;;;;;;80.53;36.03;;;;;;;-2.72;100.00;100873.81;5051881;28;20028;-53
2022/12/10 04:16:26;;;;;;;80.97;34.33;;;;;;;-2.69;100.00;100874.59;5046211;28;20391;-52
2022/12/10 04:18:53;;;;;;;83.57;35.53;;;;;;;-2.67;100.00;100875.41;5052067;28;20036;-54
2022/12/10 04:26:52;;;;;;;82.57;34.53;;;;;;;-2.64;100.00;100875.34;5050888;28;20540;-52
2022/12/10 04:29:25;;;;;;;86.18;35.22;;;;;;;-2.61;100.00;100879.66;5050932;28;20116;-52
2022/12/10 04:31:51;;;;;;;81.45;36.15;;;;;;;-2.60;100.00;100883.94;5051839;28;20029;-54
2022/12/10 04:34:17;;;;;;;82.07;35.97;;;;;;;-2.59;100.00;100883.06;5038265;28;20116;-52
2022/12/10 04:36:42;;;;;;;84.15;35.15;;;;;;;-2.56;100.00;100877.81;5050227;28;20159;-52
2022/12/10 04:39:07;;;;;;;87.47;35.33;;;;;;;-2.53;100.00;100876.88;5051735;28;20021;-52
2022/12/10 04:41:33;;;;;;;85.28;34.40;;;;;;;-2.53;100.00;100885.53;5049661;28;20525;-53
2022/12/10 04:43:58;;;;;;;89.65;37.78;;;;;;;-2.55;100.00;100882.09;5051697;28;20486;-52
2022/12/10 04:46:23;;;;;;;80.65;35.50;;;;;;;-2.54;100.00;100890.78;5051674;28;20025;-54
2022/12/10 04:48:48;;;;;;;92.70;36.92;;;;;;;-2.56;100.00;100884.75;5050770;28;20122;-52
2022/12/10 04:51:14;;;;;;;85.55;35.63;;;;;;;-2.55;100.00;100889.06;5051984;28;20029;-53
2022/12/10 04:53:39;;;;;;;83.55;34.78;;;;;;;-2.56;100.00;100893.41;5051155;28;20522;-52
2022/12/10 04:56:05;;;;;;;88.18;36.15;;;;;;;-2.56;100.00;100895.16;5051530;28;20029;-54
2022/12/10 04:58:31;;;;;;;84.95;35.88;;;;;;;-2.56;100.00;100893.41;5051048;28;20565;-52
2022/12/10 05:01:08;;;;;;;90.30;37.70;;;;;;;-2.54;100.00;100899.44;5051532;28;20533;-52
2022/12/10 05:03:34;;;;;;;100.85;36.20;;;;;;;-2.53;100.00;100897.66;5051891;28;20025;-54
2022/12/10 05:06:04;;;;;;;87.88;33.97;;;;;;;-2.55;100.00;100894.25;5050833;28;20039;-53
2022/12/10 05:08:30;;;;;;;87.60;36.40;;;;;;;-2.56;100.00;100892.56;5051655;28;20029;-52
2022/12/10 05:11:00;;;;;;;80.30;33.60;;;;;;;-2.57;100.00;100898.63;5051094;28;20044;-54
2022/12/10 05:13:25;;;;;;;88.20;37.85;;;;;;;-2.57;100.00;100898.63;5050280;28;20072;-56
2022/12/10 05:15:50;;;;;;;88.13;35.75;;;;;;;-2.58;100.00;100892.59;5051449;28;20449;-52
2022/12/10 05:18:16;;;;;;;79.35;34.50;;;;;;;-2.56;100.00;100892.56;5050985;28;20033;-56
2022/12/10 05:20:41;;;;;;;88.25;35.30;;;;;;;-2.54;100.00;100891.63;5051252;28;20505;-54
2022/12/10 05:26:08;;;;;;;82.35;35.75;;;;;;;-2.49;100.00;100897.59;5048208;28;20048;-53
2022/12/10 05:28:37;;;;;;;78.45;35.45;;;;;;;-2.48;100.00;100885.41;5053239;28;20021;-52
2022/12/10 05:31:03;;;;;;;86.28;34.55;;;;;;;-2.47;100.00;100898.41;5055356;28;20052;-54
2022/12/10 05:33:28;;;;;;;77.07;33.70;;;;;;;-2.46;100.00;100897.50;5054090;28;20028;-54
2022/12/10 05:36:00;;;;;;;83.07;34.03;;;;;;;-2.45;100.00;100894.03;5054654;28;20025;-54
2022/12/10 05:38:26;;;;;;;82.22;33.78;;;;;;;-2.47;100.00;100893.19;5042678;28;20029;-53
2022/12/10 05:40:52;;;;;;;79.72;34.42;;;;;;;-2.48;100.00;100888.91;5054480;28;20041;-52
2022/12/10 05:43:17;;;;;;;89.78;36.47;;;;;;;-2.46;100.00;100883.66;5054566;28;20429;-52
2022/12/10 05:45:43;;;;;;;83.25;34.55;;;;;;;-2.44;100.00;100885.31;5054583;28;20035;-54
2022/12/10 05:48:10;;;;;;;83.75;34.17;;;;;;;-2.44;100.00;100882.72;5054766;28;20132;-55
2022/12/10 05:50:36;;;;;;;82.90;33.47;;;;;;;-2.43;100.00;100879.25;5054275;28;20025;-54
2022/12/10 05:53:01;;;;;;;85.40;32.67;;;;;;;-2.45;100.00;100893.16;5053462;28;20100;-52
2022/12/10 05:55:28;;;;;;;84.47;33.35;;;;;;;-2.47;100.00;100893.19;5054361;28;20036;-53
2022/12/10 05:57:54;;;;;;;89.18;33.80;;;;;;;-2.47;100.00;100902.75;5054931;28;20033;-55
2022/12/10 06:00:21;;;;;;;81.68;33.00;;;;;;;-2.45;100.00;100900.97;5054443;28;20441;-53
2022/12/10 06:02:46;;;;;;;93.22;34.53;;;;;;;-2.43;100.00;100899.22;5050181;28;20380;-54
2022/12/10 06:05:11;;;;;;;80.47;33.13;;;;;;;-2.40;100.00;100898.28;5046475;28;20075;-53
2022/12/10 06:07:37;;;;;;;76.75;32.63;;;;;;;-2.37;100.00;100903.41;5054540;28;20379;-53
2022/12/10 06:10:02;;;;;;;90.68;34.92;;;;;;;-2.37;100.00;100904.25;5053188;28;20455;-54
2022/12/10 06:12:27;;;;;;;78.80;32.65;;;;;;;-2.36;100.00;100903.38;5053684;28;20399;-55
2022/12/10 06:14:53;;;;;;;79.15;33.65;;;;;;;-2.34;100.00;100904.19;5053711;28;20029;-54
2022/12/10 06:17:18;;;;;;;79.35;31.63;;;;;;;-2.30;100.00;100902.38;5054740;28;20498;-56
2022/12/10 06:19:43;;;;;;;83.68;32.33;;;;;;;-2.33;100.00;100905.03;5054160;28;20036;-53
2022/12/10 06:22:08;;;;;;;75.65;31.27;;;;;;;-2.35;100.00;100901.63;5054558;28;20046;-56
2022/12/10 06:24:34;;;;;;;87.32;33.38;;;;;;;-2.36;100.00;100905.13;5053386;28;20028;-56
2022/12/10 06:26:59;;;;;;;77.70;33.08;;;;;;;-2.36;100.00;100915.53;5054344;28;20025;-56
2022/12/10 06:29:24;;;;;;;78.72;31.48;;;;;;;-2.36;100.00;100911.19;5053722;28;20063;-54
2022/12/10 06:31:50;;;;;;;78.63;32.65;;;;;;;-2.34;100.00;100908.53;5052416;28;20028;-53
2022/12/10 06:34:15;;;;;;;79.78;33.00;;;;;;;-2.31;100.00;100911.09;5041892;28;20025;-53
2022/12/10 06:36:40;;;;;;;82.15;33.13;;;;;;;-2.31;100.00;100911.94;5053383;28;20401;-54
2022/12/10 06:39:05;;;;;;;79.22;32.50;;;;;;;-2.29;100.00;100912.75;5053350;28;20059;-56
2022/12/10 06:41:31;;;;;;;82.60;33.45;;;;;;;-2.28;100.00;100909.28;5053883;28;20040;-53
2022/12/10 06:43:58;;;;;;;81.10;33.17;;;;;;;-2.28;100.00;100914.47;5037891;28;20041;-53
2022/12/10 06:46:25;;;;;;;84.75;34.38;;;;;;;-2.30;100.00;100916.25;5050376;28;20021;-52
2022/12/10 06:48:51;;;;;;;86.90;34.70;;;;;;;-2.28;100.00;100916.19;5053113;28;20025;-52
2022/12/10 06:51:19;;;;;;;87.45;36.15;;;;;;;-2.27;100.00;100917.91;5035706;28;20099;-55
2022/12/10 06:53:46;;;;;;;82.88;33.72;;;;;;;-2.25;100.00;100921.34;5044462;28;20104;-54
2022/12/10 06:56:13;;;;;;;83.60;34.40;;;;;;;-2.24;100.00;100925.66;5053370;28;20029;-52
2022/12/10 06:58:41;;;;;;;84.15;34.15;;;;;;;-2.22;100.00;100929.06;5043171;28;20080;-52
2022/12/10 07:01:10;;;;;;;88.05;35.30;;;;;;;-2.22;100.00;100931.69;5040094;28;20026;-54
2022/12/10 07:03:37;;;;;;;88.95;36.75;;;;;;;-2.24;100.00;100941.28;5044860;28;20675;-52
2022/12/10 07:06:07;;;;;;;84.40;36.38;;;;;;;-2.25;100.00;100944.75;5046494;28;20045;-52
2022/12/10 07:08:32;;;;;;;89.55;36.55;;;;;;;-2.24;100.00;100947.31;5048506;28;20475;-54
2022/12/10 07:10:58;;;;;;;84.20;34.95;;;;;;;-2.24;100.00;100949.91;5048924;28;20033;-52
2022/12/10 07:13:23;;;;;;;85.18;35.63;;;;;;;-2.23;100.00;100948.19;5047090;28;20051;-52
2022/12/10 07:15:49;;;;;;;86.53;38.33;;;;;;;-2.23;100.00;100945.59;5045616;28;20037;-52
2022/12/10 07:18:14;;;;;;;85.85;36.45;;;;;;;-2.22;100.00;100949.88;5046598;28;20034;-52
2022/12/10 07:20:40;;;;;;;91.70;38.10;;;;;;;-2.22;100.00;100949.88;5048504;28;20475;-56
2022/12/10 07:23:05;;;;;;;91.80;35.47;;;;;;;-2.25;100.00;100949.94;5046688;28;20034;-54
2022/12/10 07:25:32;;;;;;;82.95;36.60;;;;;;;-2.25;100.00;100952.56;5049391;28;20041;-52
2022/12/10 07:27:57;;;;;;;83.53;38.80;;;;;;;-2.27;100.00;100952.59;5046970;28;20041;-54
2022/12/10 07:30:23;;;;;;;90.55;37.67;;;;;;;-2.27;100.00;100954.34;5045881;28;20206;-55
2022/12/10 07:32:48;;;;;;;89.07;36.20;;;;;;;-2.27;100.00;100956.94;5039677;28;20096;-52
2022/12/10 07:35:13;;;;;;;77.50;35.97;;;;;;;-2.27;100.00;100959.53;5046247;28;20495;-52
2022/12/10 07:37:39;;;;;;;78.63;36.42;;;;;;;-2.27;100.00;100962.16;5044388;28;20025;-51
2022/12/10 07:40:04;;;;;;;85.57;36.03;;;;;;;-2.28;100.00;100963.03;5047727;28;20036;-56
2022/12/10 07:42:30;;;;;;;99.38;37.53;;;;;;;-2.30;100.00;100960.47;5044586;28;20025;-53
2022/12/10 07:44:55;;;;;;;85.55;35.42;;;;;;;-2.33;100.00;100965.75;5042700;28;20502;-55
2022/12/10 07:47:20;;;;;;;109.30;33.08;;;;;;;-2.34;100.00;100968.38;5046198;28;20039;-55
2022/12/10 07:49:46;;;;;;;108.93;35.33;;;;;;;-2.37;100.00;100968.44;5048400;28;20033;-54
2022/12/10 07:52:11;;;;;;;87.75;35.28;;;;;;;-2.40;100.00;100966.75;5046342;28;20241;-54
2022/12/10 07:54:36;;;;;;;89.93;35.88;;;;;;;-2.42;100.00;100969.38;5044958;28;20025;-55
2022/12/10 07:57:02;;;;;;;114.10;33.83;;;;;;;-2.45;100.00;100965.97;5047704;28;20108;-56
2022/12/10 07:59:27;;;;;;;165.00;33.85;;;;;;;-2.47;100.00;100973.81;5047919;28;20533;-55
2022/12/10 08:01:52;;;;;;;97.70;32.85;;;;;;;-2.51;100.00;100966.97;5042752;28;20072;-53
2022/12/10 08:04:18;;;;;;;103.13;34.08;;;;;;;-2.50;100.00;100975.63;5050420;28;20455;-55
2022/12/10 08:06:43;;;;;;;106.50;33.65;;;;;;;-2.50;100.00;100971.31;5045468;28;20068;-52
2022/12/10 08:09:09;;;;;;;80.20;34.20;;;;;;;-2.48;100.00;100979.06;5049727;28;20040;-52
2022/12/10 08:11:35;;;;;;;94.43;35.58;;;;;;;-2.50;100.00;100971.31;5048425;28;20049;-56
2022/12/10 08:14:00;;;;;;;106.63;31.98;;;;;;;-2.51;100.00;100981.75;5042022;28;20060;-53
2022/12/10 08:16:28;;;;;;;132.07;33.03;;;;;;;-2.53;100.00;100984.38;5036217;28;21069;-56
2022/12/10 08:18:56;;;;;;;91.00;32.65;;;;;;;-2.51;100.00;100987.78;5049084;28;20131;-53
2022/12/10 08:21:23;;;;;;;82.30;31.38;;;;;;;-2.49;100.00;100986.00;5048014;28;20126;-54
2022/12/10 08:23:49;;;;;;;114.63;32.22;;;;;;;-2.45;100.00;100992.00;5049190;28;20028;-52
2022/12/10 08:26:20;;;;;;;113.32;32.42;;;;;;;-2.45;100.00;100986.78;5048930;28;20036;-55
2022/12/10 08:28:46;;;;;;;86.70;32.25;;;;;;;-2.41;100.00;100996.25;5048524;28;20115;-53
2022/12/10 08:31:13;;;;;;;114.20;33.42;;;;;;;-2.39;100.00;100993.63;5049005;28;20496;-55
2022/12/10 08:33:39;;;;;;;74.47;31.73;;;;;;;-2.36;100.00;100996.19;5043510;28;20383;-54
2022/12/10 08:36:06;;;;;;;84.35;34.05;;;;;;;-2.34;100.00;101004.81;5047433;28;20031;-56
2022/12/10 08:38:32;;;;;;;77.80;31.70;;;;;;;-2.31;100.00;101007.34;5048929;28;20029;-56
2022/12/10 08:40:58;;;;;;;91.18;31.95;;;;;;;-2.30;100.00;101004.72;5049422;28;20111;-53
2022/12/10 08:43:23;;;;;;;78.28;31.80;;;;;;;-2.29;100.00;101010.75;5047062;28;20128;-53
2022/12/10 08:45:49;;;;;;;88.15;30.35;;;;;;;-2.30;100.00;101009.91;5042962;28;20028;-54
2022/12/10 08:48:14;;;;;;;73.13;29.38;;;;;;;-2.32;100.00;101013.41;5042121;28;20036;-54
2022/12/10 08:50:39;;;;;;;73.07;30.50;;;;;;;-2.31;100.00;101018.59;5039280;28;20649;-55
2022/12/10 08:53:05;;;;;;;93.47;28.23;;;;;;;-2.31;100.00;101018.59;5041572;28;20065;-56
2022/12/10 08:55:30;;;;;;;84.47;30.38;;;;;;;-2.29;100.00;101029.81;5044434;28;20025;-56
2022/12/10 08:57:56;;;;;;;78.32;31.08;;;;;;;-2.26;100.00;101018.50;5045693;28;20032;-53
2022/12/10 09:00:22;;;;;;;72.03;31.50;;;;;;;-2.23;100.00;101026.25;5019852;28;20031;-53
2022/12/10 09:02:47;;;;;;;80.25;29.08;;;;;;;-2.20;100.00;101020.97;5049454;28;20397;-56
2022/12/10 09:05:13;;;;;;;69.05;30.80;;;;;;;-2.18;100.00;101027.00;5052390;28;20079;-52
2022/12/10 09:07:38;;;;;;;71.68;29.67;;;;;;;-2.13;100.00;101029.50;5050567;28;20020;-53
2022/12/10 09:10:04;;;;;;;83.00;30.42;;;;;;;-2.13;100.00;101027.78;5037525;28;20447;-56
2022/12/10 09:12:29;;;;;;;76.90;31.35;;;;;;;-2.11;100.00;101025.13;5041657;28;20492;-52
2022/12/10 09:14:55;;;;;;;73.65;31.17;;;;;;;-2.10;100.00;101029.44;5066857;28;20064;-54
2022/12/10 09:17:21;;;;;;;86.97;30.17;;;;;;;-2.07;100.00;101029.38;5041901;28;20026;-56
2022/12/10 09:19:46;;;;;;;78.00;30.27;;;;;;;-2.06;100.00;101024.13;5058191;28;20064;-54
2022/12/10 09:22:12;;;;;;;73.18;28.80;;;;;;;-2.03;100.00;101027.56;5051312;28;20036;-53
2022/12/10 09:24:38;;;;;;;68.80;27.85;;;;;;;-2.03;100.00;101036.25;5052776;28;20509;-54
2022/12/10 09:27:03;;;;;;;81.05;29.67;;;;;;;-2.06;100.00;101037.16;5053697;28;20478;-54
2022/12/10 09:29:29;;;;;;;115.43;30.40;;;;;;;-2.08;100.00;101030.28;5054035;28;20487;-56
2022/12/10 09:31:54;;;;;;;70.25;29.80;;;;;;;-2.09;100.00;101036.38;5052659;28;20040;-55
2022/12/10 09:34:20;;;;;;;81.78;29.58;;;;;;;-2.07;100.00;101037.19;5044269;28;20032;-52
2022/12/10 09:36:46;;;;;;;97.05;30.10;;;;;;;-2.06;100.00;101036.31;5054415;28;20044;-54
2022/12/10 09:39:11;;;;;;;70.47;27.63;;;;;;;-2.08;100.00;101041.53;5052724;28;20479;-54
2022/12/10 09:41:45;;;;;;;73.63;28.17;;;;;;;-2.07;100.00;101043.22;5053102;28;20021;-56
2022/12/10 09:44:29;;;;;;;86.15;30.00;;;;;;;-2.06;100.00;101044.97;5046997;28;20116;-54
2022/12/10 09:46:57;;;;;;;103.22;28.25;;;;;;;-2.12;100.00;101050.28;5051706;28;20397;-54
2022/12/10 09:49:47;;;;;;;79.88;28.52;;;;;;;-2.14;100.00;101049.47;5051489;28;20020;-52
2022/12/10 09:52:15;;;;;;;77.15;27.60;;;;;;;-2.16;100.00;101059.06;5051661;28;20028;-52
2022/12/10 09:54:49;;;;;;;75.88;27.25;;;;;;;-2.14;100.00;101054.66;5052074;28;20029;-54
2022/12/10 09:57:28;;;;;;;69.25;27.48;;;;;;;-2.13;100.00;101051.19;5052412;28;20553;-50
2022/12/10 09:59:54;;;;;;;67.32;26.75;;;;;;;-2.11;100.00;101052.00;5046457;28;20024;-50
2022/12/10 10:02:24;;;;;;;69.05;26.92;;;;;;;-2.11;100.00;101052.00;5061685;28;20102;-51
2022/12/10 10:04:53;;;;;;;69.93;28.27;;;;;;;-2.09;100.00;101062.38;5052300;28;20032;-51
2022/12/10 10:07:25;;;;;;;68.70;29.48;;;;;;;-2.06;100.00;101057.13;5052123;28;20116;-53
2022/12/10 10:09:56;;;;;;;60.28;25.83;;;;;;;-2.03;100.00;101064.88;5043583;28;20032;-50
2022/12/10 10:12:21;;;;;;;66.10;27.33;;;;;;;-1.99;100.00;101065.66;5035528;28;20517;-52
2022/12/10 10:14:47;;;;;;;66.75;27.85;;;;;;;-1.96;100.00;101076.84;5038640;28;20021;-50
2022/12/10 10:17:16;;;;;;;66.82;27.02;;;;;;;-1.92;100.00;101077.66;5036839;28;20035;-49
2022/12/10 10:19:44;;;;;;;67.45;29.25;;;;;;;-1.90;100.00;101076.75;5042872;28;20971;-50
2022/12/10 10:22:11;;;;;;;67.65;29.10;;;;;;;-1.84;100.00;101069.69;5042966;28;20025;-51
2022/12/10 10:24:41;;;;;;;69.43;26.88;;;;;;;-1.80;100.00;101072.16;5040221;28;20444;-51
2022/12/10 10:27:17;;;;;;;67.80;28.83;;;;;;;-1.75;100.00;101074.69;5037445;28;20036;-49
2022/12/10 10:29:45;;;;;;;59.75;25.83;;;;;;;-1.75;100.00;101072.94;5046288;28;20111;-51
2022/12/10 10:32:20;;;;;;;65.03;27.95;;;;;;;-1.73;100.00;101075.53;5046235;28;20028;-52
2022/12/10 10:34:51;;;;;;;63.40;27.30;;;;;;;-1.74;100.00;101069.44;5040550;28;20029;-53
2022/12/10 10:37:22;;;;;;;69.22;28.33;;;;;;;-1.70;100.00;101072.81;5033976;28;20041;-52
2022/12/10 10:39:50;;;;;;;67.35;27.25;;;;;;;-1.71;100.00;101073.75;5040814;28;20121;-51
2022/12/10 10:42:23;;;;;;;63.35;28.65;;;;;;;-1.69;100.00;101071.94;5031966;28;20112;-50
2022/12/10 10:44:48;;;;;;;61.30;26.60;;;;;;;-1.66;100.00;101071.03;5039654;28;20943;-54
2022/12/10 10:47:29;;;;;;;62.78;28.67;;;;;;;-1.63;100.00;101066.59;5042630;28;20020;-51
2022/12/10 10:49:54;;;;;;;63.70;29.13;;;;;;;-1.61;100.00;101071.78;5051066;28;20087;-52
2022/12/10 10:52:20;;;;;;;72.47;28.90;;;;;;;-1.62;100.00;101073.50;5049835;28;20433;-54
2022/12/10 10:54:47;;;;;;;67.28;26.60;;;;;;;-1.61;100.00;101069.19;5051059;28;20025;-51
2022/12/10 10:57:23;;;;;;;73.88;28.23;;;;;;;-1.66;100.00;101069.28;5051170;28;20090;-53
2022/12/10 10:59:51;;;;;;;66.70;26.70;;;;;;;-1.68;100.00;101066.72;5046601;28;20025;-53
2022/12/10 11:02:29;;;;;;;63.08;27.02;;;;;;;-1.65;100.00;101060.56;5048475;28;20658;-53
2022/12/10 11:04:58;;;;;;;63.00;25.90;;;;;;;-1.62;100.00;101060.50;5049144;28;20025;-51
2022/12/10 11:07:25;;;;;;;;;;;;;;;-1.55;100.00;101064.69;5048133;28;20088;-53
2022/12/10 11:09:53;;;;;;;56.40;24.80;;;;;;;-1.58;100.00;101062.16;5049631;28;19909;-52
2022/12/10 11:12:29;;;;;;;63.15;26.30;;;;;;;-1.53;100.00;101056.84;5039174;28;20453;-51
2022/12/10 11:14:55;;;;;;;68.97;27.83;;;;;;;-1.53;100.00;101055.09;5050542;28;20385;-51
2022/12/10 11:17:23;;;;;;;62.60;26.42;;;;;;;-1.56;100.00;101057.75;5042358;28;20127;-51